Time,TemperatureF,DewpointF,PressureIn,WindDirection,WindDirectionDegrees,WindSpeedMPH,WindSpeedGustMPH,Humidity,HourlyPrecipIn,Conditions,Clouds,dailyrainin,SoftwareType,DateUTC
2013-04-05 00:00:00,47.0,29.0,30.12,ENE,68,2.0,4.0,50,0.00,,,0.00,weatherlink.com 1.10,2013-04-05 05:00:00,
2013-04-05 00:15:00,46.6,29.0,30.12,ENE,69,0.0,2.0,51,0.00,,,0.00,weatherlink.com 1.10,2013-04-05 05:15:00,
2013-04-05 00:29:00,46.1,29.0,30.12,East,83,0.0,2.0,51,0.00,,,0.00,weatherlink.com 1.10,2013-04-05 05:29:00,
2013-04-05 00:45:00,45.8,29.0,30.12,East,84,0.0,1.0,52,0.00,,,0.00,weatherlink.com 1.10,2013-04-05 05:45:00,
2013-04-05 01:00:00,43.9,29.0,30.13,East,84,0.0,0.0,56,0.00,,,0.00,weatherlink.com 1.10,2013-04-05 06:00:00,
2013-04-05 01:16:00,44.0,29.0,30.13,ESE,113,1.0,3.0,56,0.00,,,0.00,weatherlink.com 1.10,2013-04-05 06:16:00,
2013-04-05 01:30:00,43.8,29.0,30.12,ENE,71,1.0,4.0,56,0.00,,,0.00,weatherlink.com 1.10,2013-04-05 06:30:00,
2013-04-05 01:45:00,43.6,29.0,30.12,NE,47,2.0,6.0,57,0.00,,,0.00,weatherlink.com 1.10,2013-04-05 06:45:00,
2013-04-05 02:00:00,43.7,29.0,30.12,ESE,113,2.0,6.0,57,0.00,,,0.00,weatherlink.com 1.10,2013-04-05 07:00:00,
2013-04-05 02:15:00,43.6,30.0,30.12,ESE,107,0.0,4.0,58,0.00,,,0.00,weatherlink.com 1.10,2013-04-05 07:15:00,
2013-04-05 02:31:00,43.2,30.0,30.12,South,184,1.0,4.0,59,0.00,,,0.00,weatherlink.com 1.10,2013-04-05 07:31:00,
2013-04-05 02:45:00,42.3,30.0,30.11,SE,130,0.0,2.0,61,0.00,,,0.00,weatherlink.com 1.10,2013-04-05 07:45:00,
2013-04-05 03:00:00,41.6,29.0,30.11,SE,135,1.0,4.0,62,0.00,,,0.00,weatherlink.com 1.10,2013-04-05 08:00:00,
2013-04-05 03:15:00,41.6,30.0,30.11,ESE,110,2.0,4.0,63,0.00,,,0.00,weatherlink.com 1.10,2013-04-05 08:15:00,
2013-04-05 03:32:00,41.5,30.0,30.11,South,191,2.0,5.0,63,0.00,,,0.00,weatherlink.com 1.10,2013-04-05 08:32:00,
2013-04-05 03:47:00,41.1,30.0,30.11,WNW,283,1.0,8.0,65,0.00,,,0.00,weatherlink.com 1.10,2013-04-05 08:47:00,
2013-04-05 04:02:00,41.0,30.0,30.11,East,90,6.0,7.0,65,0.00,,,0.00,weatherlink.com 1.10,2013-04-05 09:02:00,
2013-04-05 04:31:00,39.8,30.0,30.12,SE,129,2.0,9.0,68,0.00,,,0.00,weatherlink.com 1.10,2013-04-05 09:31:00,
2013-04-05 04:47:00,39.3,30.0,30.13,WSW,249,1.0,6.0,70,0.00,,,0.00,weatherlink.com 1.10,2013-04-05 09:47:00,
2013-04-05 05:02:00,38.8,30.0,30.14,SE,143,0.0,5.0,71,0.00,,,0.00,weatherlink.com 1.10,2013-04-05 10:02:00,
2013-04-05 05:46:00,37.8,30.0,30.13,ESE,110,3.0,6.0,73,0.00,,,0.00,weatherlink.com 1.10,2013-04-05 10:46:00,
2013-04-05 06:01:00,37.3,30.0,30.13,South,191,2.0,9.0,75,0.00,,,0.00,weatherlink.com 1.10,2013-04-05 11:01:00,
2013-04-05 06:32:00,36.6,30.0,30.13,East,79,5.0,8.0,77,0.00,,,0.00,weatherlink.com 1.10,2013-04-05 11:32:00,
2013-04-05 07:01:00,36.0,30.0,30.13,South,191,1.0,5.0,79,0.00,,,0.00,weatherlink.com 1.10,2013-04-05 12:01:00,
2013-04-05 07:17:00,35.6,30.0,30.13,South,191,1.0,4.0,80,0.00,,,0.00,weatherlink.com 1.10,2013-04-05 12:17:00,
2013-04-05 07:32:00,35.7,30.0,30.13,SSW,200,3.0,7.0,80,0.00,,,0.00,weatherlink.com 1.10,2013-04-05 12:32:00,
2013-04-05 07:47:00,36.1,31.0,30.12,SSW,192,7.0,7.0,80,0.00,,,0.00,weatherlink.com 1.10,2013-04-05 12:47:00,
2013-04-05 08:02:00,36.5,31.0,30.12,WSW,240,1.0,7.0,80,0.00,,,0.00,weatherlink.com 1.10,2013-04-05 13:02:00,
2013-04-05 08:16:00,37.1,31.0,30.12,SSW,192,2.0,6.0,79,0.00,,,0.00,weatherlink.com 1.10,2013-04-05 13:16:00,
2013-04-05 08:32:00,38.0,32.0,30.12,South,184,2.0,7.0,78,0.00,,,0.00,weatherlink.com 1.10,2013-04-05 13:32:00,
2013-04-05 08:47:00,39.2,32.0,30.11,SE,143,1.0,16.0,76,0.00,,,0.00,weatherlink.com 1.10,2013-04-05 13:47:00,
2013-04-05 09:02:00,40.3,32.0,30.12,South,191,4.0,11.0,73,0.00,,,0.00,weatherlink.com 1.10,2013-04-05 14:02:00,
2013-04-05 09:20:00,41.9,33.0,30.11,SSE,153,4.0,11.0,70,0.00,,,0.00,weatherlink.com 1.10,2013-04-05 14:20:00,
2013-04-05 09:48:00,44.9,34.0,30.10,South,191,7.0,17.0,66,0.00,,,0.00,weatherlink.com 1.10,2013-04-05 14:48:00,
2013-04-05 10:02:00,45.9,34.0,30.09,South,181,3.0,12.0,64,0.00,,,0.00,weatherlink.com 1.10,2013-04-05 15:02:00,
2013-04-05 10:17:00,47.2,35.0,30.07,SE,133,7.0,14.0,62,0.00,,,0.00,weatherlink.com 1.10,2013-04-05 15:17:00,
2013-04-05 10:32:00,48.7,35.0,30.07,SSW,192,5.0,15.0,60,0.00,,,0.00,weatherlink.com 1.10,2013-04-05 15:32:00,
2013-04-05 10:47:00,50.3,35.0,30.06,SE,136,8.0,18.0,57,0.00,,,0.00,weatherlink.com 1.10,2013-04-05 15:47:00,
2013-04-05 11:03:00,50.7,36.0,30.05,SE,124,7.0,13.0,57,0.00,,,0.00,weatherlink.com 1.10,2013-04-05 16:03:00,
2013-04-05 11:17:00,51.3,36.0,30.04,SSE,150,4.0,-999.0,57,-99.99,,,0.00,weatherlink.com 1.10,2013-04-05 16:17:00,
2013-04-05 11:33:00,53.3,37.0,30.04,SE,140,8.0,15.0,54,0.00,,,0.00,weatherlink.com 1.10,2013-04-05 16:33:00,
2013-04-05 11:48:00,55.8,38.0,30.03,SE,141,6.0,11.0,51,0.00,,,0.00,weatherlink.com 1.10,2013-04-05 16:48:00,
2013-04-05 12:18:00,58.9,39.0,30.01,SE,136,10.0,14.0,48,0.00,,,0.00,weatherlink.com 1.10,2013-04-05 17:18:00,
2013-04-05 12:33:00,60.8,39.0,30.00,South,189,6.0,20.0,44,0.00,,,0.00,weatherlink.com 1.10,2013-04-05 17:33:00,
2013-04-05 12:48:00,61.7,39.0,29.98,SE,132,6.0,17.0,44,0.00,,,0.00,weatherlink.com 1.10,2013-04-05 17:48:00,
2013-04-05 13:18:00,63.4,39.0,29.96,South,185,5.0,15.0,41,0.00,,,0.00,weatherlink.com 1.10,2013-04-05 18:18:00,
2013-04-05 13:34:00,64.0,39.0,29.95,South,190,11.0,19.0,40,0.00,,,0.00,weatherlink.com 1.10,2013-04-05 18:34:00,
2013-04-05 13:48:00,64.8,39.0,29.94,SSE,155,6.0,17.0,39,0.00,,,0.00,weatherlink.com 1.10,2013-04-05 18:48:00,
2013-04-05 14:03:00,65.3,39.0,29.91,SSE,148,9.0,19.0,38,0.00,,,0.00,weatherlink.com 1.10,2013-04-05 19:03:00,
2013-04-05 14:19:00,66.4,39.0,29.90,South,184,5.0,17.0,37,0.00,,,0.00,weatherlink.com 1.10,2013-04-05 19:19:00,
2013-04-05 14:34:00,67.2,39.0,29.88,SSW,199,3.0,19.0,36,0.00,,,0.00,weatherlink.com 1.10,2013-04-05 19:34:00,
2013-04-05 14:49:00,68.5,39.0,29.87,ESE,105,5.0,19.0,34,0.00,,,0.00,weatherlink.com 1.10,2013-04-05 19:49:00,
2013-04-05 15:05:00,69.9,37.0,29.85,South,190,8.0,17.0,30,0.00,,,0.00,weatherlink.com 1.10,2013-04-05 20:05:00,
2013-04-05 15:18:00,69.8,35.0,29.83,South,190,10.0,19.0,28,0.00,,,0.00,weatherlink.com 1.10,2013-04-05 20:18:00,
2013-04-05 15:35:00,69.1,35.0,29.82,NNE,20,5.0,19.0,29,0.00,,,0.00,weatherlink.com 1.10,2013-04-05 20:35:00,
2013-04-05 15:48:00,69.0,36.0,29.81,SE,134,14.0,20.0,30,0.00,,,0.00,weatherlink.com 1.10,2013-04-05 20:48:00,
2013-04-05 16:04:00,69.5,36.0,29.80,South,184,6.0,18.0,29,0.00,,,0.00,weatherlink.com 1.10,2013-04-05 21:04:00,
2013-04-05 16:34:00,69.1,35.0,29.78,South,172,4.0,22.0,29,0.00,,,0.00,weatherlink.com 1.10,2013-04-05 21:34:00,
2013-04-05 16:50:00,69.9,36.0,29.77,South,184,7.0,21.0,29,0.00,,,0.00,weatherlink.com 1.10,2013-04-05 21:50:00,
2013-04-05 17:05:00,70.3,36.0,29.76,South,190,8.0,21.0,29,0.00,,,0.00,weatherlink.com 1.10,2013-04-05 22:05:00,
2013-04-05 17:20:00,70.4,36.0,29.76,SSE,149,9.0,20.0,28,0.00,,,0.00,weatherlink.com 1.10,2013-04-05 22:20:00,
2013-04-05 17:35:00,70.3,36.0,29.76,South,184,12.0,18.0,28,0.00,,,0.00,weatherlink.com 1.10,2013-04-05 22:35:00,
2013-04-05 17:49:00,69.9,36.0,29.75,ESE,123,8.0,18.0,29,0.00,,,0.00,weatherlink.com 1.10,2013-04-05 22:49:00,
2013-04-05 18:04:00,69.4,37.0,29.75,SSW,210,10.0,18.0,30,0.00,,,0.00,weatherlink.com 1.10,2013-04-05 23:04:00,
2013-04-05 18:19:00,68.7,36.0,29.75,SW,224,6.0,20.0,30,0.00,,,0.00,weatherlink.com 1.10,2013-04-05 23:19:00,
2013-04-05 18:35:00,67.7,37.0,29.75,South,190,2.0,18.0,32,0.00,,,0.00,weatherlink.com 1.10,2013-04-05 23:35:00,
2013-04-05 18:50:00,66.6,37.0,29.74,ENE,66,8.0,16.0,34,0.00,,,0.00,weatherlink.com 1.10,2013-04-05 23:50:00,
2013-04-05 19:05:00,65.9,37.0,29.74,South,186,10.0,18.0,35,0.00,,,0.00,weatherlink.com 1.10,2013-04-06 00:05:00,
2013-04-05 19:19:00,65.0,37.0,29.74,South,190,2.0,10.0,36,0.00,,,0.00,weatherlink.com 1.10,2013-04-06 00:19:00,
2013-04-05 19:34:00,64.1,38.0,29.73,South,183,4.0,14.0,38,0.00,,,0.00,weatherlink.com 1.10,2013-04-06 00:34:00,
2013-04-05 19:50:00,63.3,38.0,29.73,SSE,150,6.0,16.0,39,0.00,,,0.00,weatherlink.com 1.10,2013-04-06 00:50:00,
2013-04-05 20:04:00,62.4,38.0,29.73,SE,131,6.0,13.0,41,0.00,,,0.00,weatherlink.com 1.10,2013-04-06 01:04:00,
2013-04-05 20:19:00,61.8,38.0,29.72,SE,129,1.0,13.0,42,0.00,,,0.00,weatherlink.com 1.10,2013-04-06 01:19:00,
2013-04-05 20:51:00,60.9,38.0,29.71,SE,146,5.0,12.0,43,0.00,,,0.00,weatherlink.com 1.10,2013-04-06 01:51:00,
2013-04-05 21:05:00,60.6,38.0,29.71,ESE,109,7.0,14.0,44,0.00,,,0.00,weatherlink.com 1.10,2013-04-06 02:05:00,
2013-04-05 21:21:00,60.1,39.0,29.70,SE,146,5.0,11.0,45,0.00,,,0.00,weatherlink.com 1.10,2013-04-06 02:21:00,
2013-04-05 21:35:00,59.7,38.0,29.70,South,190,5.0,12.0,45,0.00,,,0.00,weatherlink.com 1.10,2013-04-06 02:35:00,
2013-04-05 22:05:00,59.1,40.0,29.70,South,184,6.0,13.0,49,0.00,,,0.00,weatherlink.com 1.10,2013-04-06 03:05:00,
2013-04-05 22:20:00,58.8,39.0,29.70,South,184,7.0,11.0,49,0.00,,,0.00,weatherlink.com 1.10,2013-04-06 03:20:00,
2013-04-05 22:35:00,58.8,39.0,29.69,South,190,6.0,13.0,49,0.00,,,0.00,weatherlink.com 1.10,2013-04-06 03:35:00,
2013-04-05 22:50:00,58.6,40.0,29.68,South,184,4.0,14.0,50,0.00,,,0.00,weatherlink.com 1.10,2013-04-06 03:50:00,
2013-04-05 23:06:00,58.2,40.0,29.68,South,179,9.0,11.0,51,0.00,,,0.00,weatherlink.com 1.10,2013-04-06 04:06:00,
2013-04-05 23:20:00,58.1,40.0,29.67,SE,125,6.0,13.0,51,0.00,,,0.00,weatherlink.com 1.10,2013-04-06 04:20:00,
2013-04-05 23:35:00,58.1,40.0,29.67,SSE,159,3.0,15.0,52,0.00,,,0.00,weatherlink.com 1.10,2013-04-06 04:35:00,
2013-04-05 23:50:00,58.1,41.0,29.67,South,190,7.0,11.0,53,0.00,,,0.00,weatherlink.com 1.10,2013-04-06 04:50:00,